BAW178 KJFK-EGLL
Flight info
| Callsign | BAW178 |
|---|---|
| Flight time | 6h 18m |
| Altitude | 37000 |
| Route | DCT BETTE DCT ACK DCT BRADD N261B NICSO/M083F390 DCT 48N050W 50N040W 52N030W 53N020W DCT MALOT DCT GISTI/N0469F390 DCT ENJEX DCT AVZAC DCT INFEC DCT JETZI DCT AMFUL DCT ORZEB/N0395F230 P2 SIRIC SIRIC1H |
| Aircraft | B77W/H-SDE1E3FGHIJ3J4J5J6M1M2P2RWXYZ/LB1D1 |
Departure
| Time | 2026-05-04 08:50 |
|---|---|
| Airport | John F. Kennedy International Airport (KJFK) |
Arrival
| Time | 2026-05-04 15:09 |
|---|---|
| Airport | London Heathrow Airport (EGLL) |
| Time | Latitude | Longitude | Altitude | Speed | Heading |
|---|---|---|---|---|---|
| 2026-05-04 07:59 | 40.64937 | -73.78983 | 28 ft | 0 kts | 199° |
| 2026-05-04 08:35 | 40.65044 | -73.78917 | 27 ft | 2 kts | 240° |
| 2026-05-04 08:35 | 40.65045 | -73.78915 | 27 ft | 0 kts | 240° |
| 2026-05-04 08:37 | 40.65044 | -73.78916 | 27 ft | 0 kts | 240° |
| 2026-05-04 08:37 | 40.65042 | -73.78921 | 27 ft | 1 kts | 240° |
| 2026-05-04 08:37 | 40.65035 | -73.78937 | 28 ft | 7 kts | 240° |
| 2026-05-04 08:38 | 40.64992 | -73.79039 | 27 ft | 14 kts | 241° |
| 2026-05-04 08:38 | 40.64946 | -73.79149 | 28 ft | 14 kts | 241° |
| 2026-05-04 08:38 | 40.64914 | -73.79224 | 28 ft | 8 kts | 240° |
| 2026-05-04 08:40 | 40.64783 | -73.79530 | 28 ft | 0 kts | 240° |
| 2026-05-04 08:40 | 40.64774 | -73.79551 | 28 ft | 8 kts | 240° |
| 2026-05-04 08:40 | 40.64746 | -73.79616 | 28 ft | 8 kts | 240° |
| 2026-05-04 08:41 | 40.64718 | -73.79681 | 28 ft | 8 kts | 240° |
| 2026-05-04 08:41 | 40.64688 | -73.79716 | 28 ft | 4 kts | 184° |
| 2026-05-04 08:41 | 40.64651 | -73.79695 | 28 ft | 12 kts | 148° |
| 2026-05-04 08:41 | 40.64568 | -73.79627 | 28 ft | 14 kts | 160° |
| 2026-05-04 08:42 | 40.64470 | -73.79596 | 29 ft | 14 kts | 170° |
| 2026-05-04 08:42 | 40.64372 | -73.79586 | 29 ft | 14 kts | 180° |
| 2026-05-04 08:42 | 40.64271 | -73.79591 | 29 ft | 14 kts | 188° |
| 2026-05-04 08:42 | 40.64171 | -73.79608 | 30 ft | 14 kts | 187° |
| 2026-05-04 08:43 | 40.64072 | -73.79593 | 28 ft | 15 kts | 161° |
| 2026-05-04 08:43 | 40.63988 | -73.79516 | 27 ft | 15 kts | 129° |
| 2026-05-04 08:43 | 40.63931 | -73.79397 | 26 ft | 15 kts | 118° |
| 2026-05-04 08:43 | 40.63878 | -73.79277 | 29 ft | 15 kts | 121° |
| 2026-05-04 08:44 | 40.63823 | -73.79157 | 27 ft | 15 kts | 121° |
| 2026-05-04 08:44 | 40.63769 | -73.79037 | 27 ft | 15 kts | 120° |
| 2026-05-04 08:46 | 40.63377 | -73.78174 | 30 ft | 17 kts | 121° |
| 2026-05-04 08:46 | 40.63333 | -73.78031 | 29 ft | 17 kts | 99° |
| 2026-05-04 08:46 | 40.63338 | -73.77905 | 30 ft | 11 kts | 84° |
| 2026-05-04 08:46 | 40.63305 | -73.77800 | 32 ft | 20 kts | 121° |
| 2026-05-04 08:47 | 40.63227 | -73.77628 | 33 ft | 18 kts | 121° |
| 2026-05-04 08:47 | 40.63162 | -73.77485 | 35 ft | 18 kts | 121° |
| 2026-05-04 08:47 | 40.63097 | -73.77341 | 32 ft | 18 kts | 121° |
| 2026-05-04 08:47 | 40.63033 | -73.77199 | 31 ft | 18 kts | 120° |
| 2026-05-04 08:48 | 40.62988 | -73.77098 | 27 ft | 8 kts | 123° |
| 2026-05-04 08:48 | 40.62935 | -73.77097 | 28 ft | 8 kts | 208° |
| 2026-05-04 08:48 | 40.62884 | -73.77134 | 29 ft | 8 kts | 209° |
| 2026-05-04 08:48 | 40.62830 | -73.77175 | 28 ft | 9 kts | 210° |
| 2026-05-04 08:49 | 40.62817 | -73.77206 | 28 ft | 5 kts | 264° |
| 2026-05-04 08:50 | 40.64574 | -73.81077 | 1126 ft | 176 kts | 298° |
| 2026-05-04 08:50 | 40.65234 | -73.82462 | 1865 ft | 181 kts | 297° |
| 2026-05-04 08:51 | 40.65676 | -73.83976 | 2417 ft | 184 kts | 269° |
| 2026-05-04 08:51 | 40.65277 | -73.85608 | 3012 ft | 196 kts | 238° |
| 2026-05-04 08:51 | 40.64288 | -73.86866 | 3759 ft | 204 kts | 213° |
| 2026-05-04 08:51 | 40.62926 | -73.87523 | 4410 ft | 212 kts | 204° |
| 2026-05-04 08:52 | 40.61515 | -73.88140 | 5159 ft | 215 kts | 204° |
| 2026-05-04 08:52 | 40.60087 | -73.88700 | 5921 ft | 217 kts | 192° |
| 2026-05-04 08:52 | 40.58550 | -73.88394 | 6374 ft | 242 kts | 162° |
| 2026-05-04 08:52 | 40.56923 | -73.87426 | 6613 ft | 267 kts | 160° |
| 2026-05-04 08:53 | 40.55191 | -73.86411 | 7286 ft | 276 kts | 160° |
| 2026-05-04 08:54 | 40.49361 | -73.72155 | 11135 ft | 380 kts | 81° |
| 2026-05-04 08:55 | 40.49753 | -73.68692 | 11773 ft | 394 kts | 82° |
| 2026-05-04 08:55 | 40.50141 | -73.65082 | 12660 ft | 403 kts | 82° |
| 2026-05-04 08:55 | 40.50517 | -73.61369 | 13656 ft | 411 kts | 82° |
| 2026-05-04 08:55 | 40.50880 | -73.57607 | 14550 ft | 418 kts | 82° |
| 2026-05-04 08:57 | 40.53370 | -73.30081 | 20529 ft | 459 kts | 82° |
| 2026-05-04 09:01 | 40.64253 | -72.68623 | 28864 ft | 529 kts | 70° |
| 2026-05-04 09:01 | 40.65424 | -72.64014 | 29305 ft | 533 kts | 70° |
| 2026-05-04 09:01 | 40.66599 | -72.59374 | 29929 ft | 532 kts | 70° |
| 2026-05-04 09:01 | 40.67768 | -72.54745 | 30506 ft | 532 kts | 70° |
| 2026-05-04 09:02 | 40.68939 | -72.50102 | 30871 ft | 536 kts | 70° |
| 2026-05-04 09:02 | 40.70100 | -72.45494 | 31240 ft | 538 kts | 70° |
| 2026-05-04 09:02 | 40.71281 | -72.40800 | 31668 ft | 539 kts | 70° |
| 2026-05-04 09:02 | 40.72462 | -72.36100 | 32114 ft | 540 kts | 70° |
| 2026-05-04 09:03 | 40.73645 | -72.31381 | 32549 ft | 541 kts | 70° |
| 2026-05-04 09:03 | 40.74826 | -72.26662 | 32959 ft | 543 kts | 70° |
| 2026-05-04 09:03 | 40.76010 | -72.21925 | 33280 ft | 546 kts | 70° |
| 2026-05-04 09:03 | 40.77201 | -72.17145 | 33557 ft | 550 kts | 70° |
| 2026-05-04 09:04 | 40.77892 | -72.14372 | 33788 ft | 551 kts | 70° |
| 2026-05-04 09:04 | 40.78486 | -72.11982 | 34008 ft | 551 kts | 70° |
| 2026-05-04 09:04 | 40.79676 | -72.07181 | 34614 ft | 544 kts | 70° |
| 2026-05-04 09:04 | 40.80843 | -72.02465 | 35279 ft | 537 kts | 70° |
| 2026-05-04 09:05 | 40.82002 | -71.97776 | 35660 ft | 538 kts | 70° |
| 2026-05-04 09:05 | 40.83163 | -71.93070 | 35909 ft | 540 kts | 70° |
| 2026-05-04 09:05 | 40.84330 | -71.88333 | 36160 ft | 542 kts | 71° |
| 2026-05-04 09:05 | 40.85479 | -71.83662 | 36439 ft | 543 kts | 71° |
| 2026-05-04 09:06 | 40.86641 | -71.78925 | 36794 ft | 542 kts | 71° |
| 2026-05-04 09:07 | 40.94700 | -71.45787 | 36985 ft | 535 kts | 71° |
| 2026-05-04 09:08 | 40.95833 | -71.41093 | 36994 ft | 535 kts | 71° |
| 2026-05-04 09:08 | 40.98091 | -71.31709 | 36992 ft | 536 kts | 71° |
| 2026-05-04 09:09 | 41.00346 | -71.22297 | 36984 ft | 537 kts | 71° |
| 2026-05-04 09:09 | 41.02601 | -71.12849 | 36989 ft | 539 kts | 71° |
| 2026-05-04 09:10 | 41.04839 | -71.03429 | 36989 ft | 540 kts | 71° |
| 2026-05-04 09:10 | 41.07089 | -70.93923 | 36982 ft | 541 kts | 71° |
| 2026-05-04 09:11 | 41.09333 | -70.84397 | 36958 ft | 541 kts | 72° |
| 2026-05-04 09:11 | 41.11560 | -70.74910 | 36973 ft | 541 kts | 72° |
| 2026-05-04 09:12 | 41.13789 | -70.65368 | 36976 ft | 541 kts | 72° |
| 2026-05-04 09:14 | 41.22606 | -70.27240 | 36974 ft | 541 kts | 72° |
| 2026-05-04 09:14 | 41.24797 | -70.17664 | 36972 ft | 541 kts | 72° |
| 2026-05-04 09:15 | 41.27087 | -70.08117 | 36999 ft | 541 kts | 66° |
| 2026-05-04 09:15 | 41.30554 | -69.99364 | 36995 ft | 537 kts | 54° |
| 2026-05-04 09:17 | 41.52234 | -69.65438 | 36957 ft | 536 kts | 46° |
| 2026-05-04 09:18 | 41.57046 | -69.57908 | 36957 ft | 536 kts | 46° |
| 2026-05-04 09:18 | 41.61878 | -69.50334 | 36934 ft | 536 kts | 46° |
| 2026-05-04 09:19 | 41.66707 | -69.42750 | 36953 ft | 535 kts | 46° |
| 2026-05-04 09:19 | 41.71536 | -69.35151 | 36946 ft | 535 kts | 46° |
| 2026-05-04 09:20 | 41.76359 | -69.27542 | 36946 ft | 535 kts | 46° |
| 2026-05-04 09:20 | 41.81163 | -69.19942 | 36939 ft | 534 kts | 46° |
| 2026-05-04 09:21 | 41.85960 | -69.12333 | 36942 ft | 533 kts | 46° |
| 2026-05-04 09:21 | 41.90741 | -69.04732 | 36945 ft | 533 kts | 46° |
| 2026-05-04 09:22 | 41.95514 | -68.97123 | 36929 ft | 532 kts | 46° |
| 2026-05-04 09:22 | 42.00264 | -68.89532 | 36932 ft | 531 kts | 46° |
| 2026-05-04 09:23 | 42.04999 | -68.81945 | 36955 ft | 531 kts | 47° |
| 2026-05-04 09:23 | 42.09738 | -68.74334 | 36937 ft | 530 kts | 47° |
| 2026-05-04 09:25 | 42.28647 | -68.43765 | 36920 ft | 531 kts | 47° |
| 2026-05-04 09:26 | 42.33368 | -68.36084 | 36948 ft | 532 kts | 47° |
| 2026-05-04 09:26 | 42.38079 | -68.28400 | 36925 ft | 533 kts | 47° |
| 2026-05-04 09:27 | 42.42799 | -68.20680 | 36912 ft | 533 kts | 47° |
| 2026-05-04 09:27 | 42.47532 | -68.12918 | 36905 ft | 533 kts | 47° |
| 2026-05-04 09:28 | 42.52226 | -68.05201 | 36902 ft | 533 kts | 47° |
| 2026-05-04 09:28 | 42.56934 | -67.97440 | 36911 ft | 532 kts | 47° |
| 2026-05-04 09:29 | 42.61640 | -67.89662 | 36894 ft | 531 kts | 47° |
| 2026-05-04 09:29 | 42.66310 | -67.81923 | 36889 ft | 530 kts | 48° |
| 2026-05-04 09:30 | 42.70956 | -67.74204 | 36909 ft | 530 kts | 48° |
| 2026-05-04 09:30 | 42.75610 | -67.66453 | 36906 ft | 530 kts | 48° |
| 2026-05-04 09:31 | 42.80275 | -67.58661 | 36892 ft | 530 kts | 48° |
| 2026-05-04 09:31 | 42.84934 | -67.50858 | 36887 ft | 529 kts | 48° |
| 2026-05-04 09:32 | 42.89558 | -67.43095 | 36885 ft | 529 kts | 48° |
| 2026-05-04 09:34 | 43.08042 | -67.11851 | 36882 ft | 529 kts | 49° |
| 2026-05-04 09:34 | 43.12657 | -67.04000 | 36870 ft | 529 kts | 49° |
| 2026-05-04 09:35 | 43.16804 | -66.95648 | 36855 ft | 532 kts | 60° |
| 2026-05-04 09:35 | 43.20206 | -66.86639 | 36876 ft | 532 kts | 62° |
| 2026-05-04 09:37 | 43.33689 | -66.50659 | 36845 ft | 530 kts | 61° |
| 2026-05-04 09:38 | 43.37069 | -66.41654 | 36828 ft | 530 kts | 62° |
| 2026-05-04 09:38 | 43.40447 | -66.32618 | 36825 ft | 530 kts | 62° |
| 2026-05-04 09:39 | 43.43805 | -66.23604 | 36829 ft | 529 kts | 62° |
| 2026-05-04 09:39 | 43.47155 | -66.14580 | 36809 ft | 529 kts | 62° |
| 2026-05-04 09:40 | 43.50499 | -66.05546 | 36802 ft | 529 kts | 62° |
| 2026-05-04 09:40 | 43.53811 | -65.96569 | 36802 ft | 529 kts | 62° |
| 2026-05-04 09:42 | 43.67099 | -65.60260 | 36769 ft | 530 kts | 62° |
| 2026-05-04 09:43 | 43.69851 | -65.52681 | 36764 ft | 530 kts | 62° |
| 2026-05-04 09:43 | 43.73154 | -65.43556 | 36757 ft | 531 kts | 62° |
| 2026-05-04 09:44 | 43.76986 | -65.32931 | 36751 ft | 531 kts | 63° |
| 2026-05-04 09:46 | 43.89553 | -64.97797 | 36729 ft | 531 kts | 63° |
| 2026-05-04 09:46 | 43.92813 | -64.88611 | 36703 ft | 531 kts | 63° |
| 2026-05-04 09:47 | 43.96066 | -64.79411 | 36702 ft | 531 kts | 63° |
| 2026-05-04 09:49 | 44.09012 | -64.42495 | 36688 ft | 533 kts | 63° |
| 2026-05-04 09:51 | 44.20272 | -64.09972 | 36652 ft | 533 kts | 64° |
| 2026-05-04 09:51 | 44.23471 | -64.00660 | 36647 ft | 533 kts | 64° |
| 2026-05-04 09:52 | 44.26665 | -63.91329 | 36635 ft | 533 kts | 64° |
| 2026-05-04 09:52 | 44.29849 | -63.81998 | 36644 ft | 533 kts | 64° |
| 2026-05-04 09:53 | 44.33024 | -63.72659 | 36618 ft | 532 kts | 64° |
| 2026-05-04 09:53 | 44.36190 | -63.63313 | 36591 ft | 531 kts | 64° |
| 2026-05-04 09:54 | 44.39331 | -63.54012 | 36583 ft | 531 kts | 64° |
| 2026-05-04 09:54 | 44.42480 | -63.44650 | 36598 ft | 532 kts | 64° |
| 2026-05-04 09:55 | 44.45624 | -63.35275 | 36585 ft | 532 kts | 64° |
| 2026-05-04 09:55 | 44.48757 | -63.25896 | 36578 ft | 532 kts | 65° |
| 2026-05-04 09:56 | 44.51863 | -63.16566 | 36573 ft | 531 kts | 65° |
| 2026-05-04 09:56 | 44.54979 | -63.07174 | 36553 ft | 531 kts | 65° |
| 2026-05-04 09:57 | 44.58088 | -62.97769 | 36550 ft | 531 kts | 65° |
| 2026-05-04 09:57 | 44.61192 | -62.88345 | 36554 ft | 532 kts | 65° |
| 2026-05-04 09:58 | 44.64283 | -62.78930 | 36539 ft | 533 kts | 65° |
| 2026-05-04 09:58 | 44.67383 | -62.69451 | 36545 ft | 533 kts | 65° |
| 2026-05-04 10:00 | 44.79665 | -62.31558 | 36507 ft | 533 kts | 66° |
| 2026-05-04 10:04 | 45.00875 | -61.64796 | 36421 ft | 532 kts | 66° |
| 2026-05-04 10:04 | 45.03870 | -61.55227 | 36421 ft | 532 kts | 67° |
| 2026-05-04 10:05 | 45.06840 | -61.45705 | 36401 ft | 532 kts | 67° |
| 2026-05-04 10:05 | 45.09823 | -61.36103 | 36383 ft | 532 kts | 67° |
| 2026-05-04 10:06 | 45.12781 | -61.26547 | 36382 ft | 532 kts | 67° |
| 2026-05-04 10:06 | 45.15756 | -61.16902 | 36359 ft | 532 kts | 67° |
| 2026-05-04 10:08 | 45.26106 | -60.83055 | 36306 ft | 537 kts | 68° |
| 2026-05-04 10:08 | 45.29058 | -60.73318 | 36270 ft | 538 kts | 68° |
| 2026-05-04 10:09 | 45.32008 | -60.63550 | 36270 ft | 537 kts | 68° |
| 2026-05-04 10:09 | 45.34931 | -60.53834 | 36263 ft | 537 kts | 68° |
| 2026-05-04 10:10 | 45.37866 | -60.44042 | 36231 ft | 535 kts | 69° |
| 2026-05-04 10:10 | 45.40775 | -60.34296 | 36247 ft | 535 kts | 69° |
| 2026-05-04 10:11 | 45.43662 | -60.24587 | 36253 ft | 536 kts | 69° |
| 2026-05-04 10:11 | 45.46571 | -60.14737 | 36233 ft | 537 kts | 69° |
| 2026-05-04 10:12 | 45.49431 | -60.04934 | 36258 ft | 536 kts | 69° |
| 2026-05-04 10:12 | 45.52360 | -59.95117 | 36224 ft | 538 kts | 69° |
| 2026-05-04 10:13 | 45.55266 | -59.85322 | 36242 ft | 537 kts | 69° |
| 2026-05-04 10:13 | 45.58111 | -59.75453 | 36215 ft | 537 kts | 70° |
| 2026-05-04 10:14 | 45.60922 | -59.65579 | 36225 ft | 537 kts | 70° |
| 2026-05-04 10:16 | 45.72266 | -59.26199 | 36234 ft | 535 kts | 70° |
| 2026-05-04 10:16 | 45.75103 | -59.16342 | 36236 ft | 535 kts | 70° |
| 2026-05-04 10:17 | 45.77892 | -59.06524 | 36206 ft | 535 kts | 70° |
| 2026-05-04 10:19 | 45.88946 | -58.67124 | 36235 ft | 531 kts | 71° |
| 2026-05-04 10:19 | 45.91680 | -58.57273 | 36224 ft | 530 kts | 71° |
| 2026-05-04 10:20 | 45.94401 | -58.47430 | 36238 ft | 529 kts | 71° |
| 2026-05-04 10:20 | 45.97092 | -58.37662 | 36226 ft | 528 kts | 72° |
| 2026-05-04 10:21 | 45.99788 | -58.27840 | 36240 ft | 528 kts | 72° |
| 2026-05-04 10:21 | 46.02474 | -58.18011 | 36228 ft | 528 kts | 72° |
| 2026-05-04 10:22 | 46.06485 | -58.03265 | 36254 ft | 527 kts | 72° |
| 2026-05-04 10:23 | 46.09128 | -57.93493 | 36255 ft | 527 kts | 72° |
| 2026-05-04 10:25 | 46.19670 | -57.54120 | 36293 ft | 525 kts | 73° |
| 2026-05-04 10:25 | 46.22263 | -57.44334 | 36313 ft | 525 kts | 73° |
| 2026-05-04 10:26 | 46.24869 | -57.34454 | 36297 ft | 526 kts | 73° |
| 2026-05-04 10:26 | 46.27475 | -57.24537 | 36314 ft | 527 kts | 73° |
| 2026-05-04 10:27 | 46.30052 | -57.14686 | 36315 ft | 527 kts | 73° |
| 2026-05-04 10:27 | 46.32637 | -57.04766 | 36317 ft | 527 kts | 73° |
| 2026-05-04 10:28 | 46.35212 | -56.94842 | 36289 ft | 526 kts | 74° |
| 2026-05-04 10:28 | 46.37774 | -56.84925 | 36333 ft | 526 kts | 74° |
| 2026-05-04 10:29 | 46.40328 | -56.74991 | 36343 ft | 526 kts | 74° |
| 2026-05-04 10:29 | 46.42874 | -56.65050 | 36358 ft | 526 kts | 75° |
| 2026-05-04 10:30 | 46.45398 | -56.55150 | 36346 ft | 527 kts | 75° |
| 2026-05-04 10:30 | 46.47930 | -56.45177 | 36362 ft | 526 kts | 75° |
| 2026-05-04 10:31 | 46.50452 | -56.35203 | 36386 ft | 526 kts | 75° |
| 2026-05-04 10:32 | 46.59189 | -56.00296 | 36380 ft | 525 kts | 76° |
| 2026-05-04 10:33 | 46.61662 | -55.90319 | 36390 ft | 526 kts | 76° |
| 2026-05-04 10:33 | 46.64117 | -55.80368 | 36421 ft | 526 kts | 76° |
| 2026-05-04 10:34 | 46.66578 | -55.70351 | 36423 ft | 526 kts | 76° |
| 2026-05-04 10:34 | 46.69033 | -55.60314 | 36445 ft | 526 kts | 76° |
| 2026-05-04 10:35 | 46.71472 | -55.50296 | 36494 ft | 525 kts | 76° |
| 2026-05-04 10:35 | 46.73905 | -55.40254 | 36466 ft | 526 kts | 76° |
| 2026-05-04 10:36 | 46.76341 | -55.30155 | 36452 ft | 527 kts | 76° |
| 2026-05-04 10:36 | 46.78756 | -55.20103 | 36469 ft | 527 kts | 76° |
| 2026-05-04 10:37 | 46.81168 | -55.10014 | 36474 ft | 528 kts | 76° |
| 2026-05-04 10:37 | 46.83583 | -54.99867 | 36475 ft | 528 kts | 76° |
| 2026-05-04 10:39 | 46.91528 | -54.66154 | 36498 ft | 526 kts | 77° |
| 2026-05-04 10:40 | 46.93887 | -54.56038 | 36508 ft | 525 kts | 77° |
| 2026-05-04 10:40 | 46.96238 | -54.45912 | 36479 ft | 525 kts | 77° |
| 2026-05-04 10:41 | 46.98570 | -54.35823 | 36506 ft | 524 kts | 77° |
| 2026-05-04 10:41 | 47.00889 | -54.25744 | 36513 ft | 523 kts | 77° |
| 2026-05-04 10:42 | 47.03198 | -54.15654 | 36515 ft | 522 kts | 77° |
| 2026-05-04 10:42 | 47.05490 | -54.05597 | 36516 ft | 522 kts | 77° |
| 2026-05-04 10:43 | 47.07778 | -53.95511 | 36509 ft | 520 kts | 78° |
| 2026-05-04 10:45 | 47.16818 | -53.55169 | 36534 ft | 520 kts | 79° |
| 2026-05-04 10:45 | 47.19052 | -53.45086 | 36532 ft | 520 kts | 79° |
| 2026-05-04 10:46 | 47.21279 | -53.34978 | 36546 ft | 520 kts | 79° |
| 2026-05-04 10:46 | 47.23496 | -53.24873 | 36493 ft | 520 kts | 79° |
| 2026-05-04 10:47 | 47.25711 | -53.14724 | 36538 ft | 519 kts | 79° |
| 2026-05-04 10:47 | 47.27905 | -53.04618 | 36558 ft | 519 kts | 79° |
| 2026-05-04 10:49 | 47.36619 | -52.64002 | 36558 ft | 519 kts | 80° |
| 2026-05-04 10:50 | 47.38763 | -52.53886 | 36567 ft | 518 kts | 80° |
| 2026-05-04 10:52 | 47.47245 | -52.13347 | 36622 ft | 517 kts | 81° |
| 2026-05-04 10:52 | 47.49349 | -52.03170 | 36629 ft | 517 kts | 81° |
| 2026-05-04 10:54 | 47.59602 | -51.62979 | 36596 ft | 522 kts | 77° |
| 2026-05-04 10:56 | 47.69793 | -51.22944 | 36660 ft | 518 kts | 78° |
| 2026-05-04 10:57 | 47.72324 | -51.12898 | 36666 ft | 518 kts | 78° |
| 2026-05-04 10:57 | 47.74838 | -51.02879 | 36643 ft | 517 kts | 78° |
| 2026-05-04 10:58 | 47.77323 | -50.92928 | 36668 ft | 516 kts | 79° |
| 2026-05-04 10:58 | 47.79815 | -50.82903 | 36675 ft | 516 kts | 79° |
| 2026-05-04 10:59 | 47.82296 | -50.72877 | 36634 ft | 515 kts | 79° |
| 2026-05-04 10:59 | 47.84747 | -50.62934 | 36645 ft | 515 kts | 79° |
| 2026-05-04 11:00 | 47.87202 | -50.52926 | 36684 ft | 514 kts | 79° |
| 2026-05-04 11:02 | 47.96937 | -50.12787 | 36701 ft | 515 kts | 79° |
| 2026-05-04 11:05 | 48.15618 | -49.37346 | 36721 ft | 518 kts | 79° |
| 2026-05-04 11:06 | 48.18104 | -49.27201 | 36739 ft | 520 kts | 79° |
| 2026-05-04 11:06 | 48.20592 | -49.17007 | 36752 ft | 521 kts | 79° |
| 2026-05-04 11:10 | 48.37800 | -48.45186 | 36772 ft | 526 kts | 78° |
| 2026-05-04 11:12 | 48.47609 | -48.03168 | 36812 ft | 534 kts | 77° |
| 2026-05-04 11:12 | 48.50040 | -47.92633 | 36819 ft | 534 kts | 77° |
| 2026-05-04 11:13 | 48.52455 | -47.82106 | 36798 ft | 533 kts | 77° |
| 2026-05-04 11:13 | 48.54874 | -47.71515 | 36830 ft | 533 kts | 77° |
| 2026-05-04 11:14 | 48.56921 | -47.60991 | 36861 ft | 516 kts | 80° |
| 2026-05-04 11:16 | 48.66796 | -47.18894 | 36876 ft | 532 kts | 77° |
| 2026-05-04 11:16 | 48.69058 | -47.08249 | 36886 ft | 531 kts | 76° |
| 2026-05-04 11:17 | 48.71373 | -46.97695 | 36893 ft | 531 kts | 76° |
| 2026-05-04 11:19 | 48.80666 | -46.55099 | 36928 ft | 535 kts | 75° |
| 2026-05-04 11:19 | 48.82964 | -46.44399 | 36931 ft | 536 kts | 75° |
| 2026-05-04 11:20 | 48.85270 | -46.33608 | 36920 ft | 536 kts | 75° |
| 2026-05-04 11:20 | 48.87555 | -46.22864 | 36930 ft | 536 kts | 75° |
| 2026-05-04 11:22 | 48.96589 | -45.79799 | 36964 ft | 533 kts | 74° |
| 2026-05-04 11:23 | 48.98802 | -45.69112 | 36957 ft | 532 kts | 75° |
| 2026-05-04 11:25 | 49.05660 | -45.35605 | 36982 ft | 532 kts | 74° |
| 2026-05-04 11:25 | 49.07832 | -45.24880 | 36984 ft | 532 kts | 74° |
| 2026-05-04 11:27 | 49.17535 | -44.76214 | 36997 ft | 533 kts | 73° |
| 2026-05-04 11:28 | 49.19660 | -44.65388 | 37027 ft | 533 kts | 73° |
| 2026-05-04 11:28 | 49.21774 | -44.54563 | 37032 ft | 533 kts | 73° |
| 2026-05-04 11:29 | 49.23888 | -44.43675 | 37031 ft | 533 kts | 73° |
| 2026-05-04 11:29 | 49.25993 | -44.32769 | 37038 ft | 532 kts | 74° |
| 2026-05-04 11:33 | 49.40361 | -43.56591 | 37079 ft | 530 kts | 72° |
| 2026-05-04 11:33 | 49.42363 | -43.45729 | 37091 ft | 530 kts | 72° |
| 2026-05-04 11:34 | 49.44363 | -43.34814 | 37093 ft | 530 kts | 73° |
| 2026-05-04 11:34 | 49.46339 | -43.23957 | 37105 ft | 530 kts | 72° |
| 2026-05-04 11:35 | 49.48320 | -43.13013 | 37104 ft | 530 kts | 72° |
| 2026-05-04 11:35 | 49.50279 | -43.02128 | 37118 ft | 530 kts | 72° |
| 2026-05-04 11:36 | 49.52241 | -42.91155 | 37126 ft | 531 kts | 72° |
| 2026-05-04 11:36 | 49.54188 | -42.80202 | 37138 ft | 531 kts | 72° |
| 2026-05-04 11:37 | 49.56128 | -42.69218 | 37131 ft | 531 kts | 72° |
| 2026-05-04 11:37 | 49.58045 | -42.58298 | 37140 ft | 531 kts | 72° |
| 2026-05-04 11:38 | 49.59964 | -42.47298 | 37149 ft | 531 kts | 72° |
| 2026-05-04 11:38 | 49.61549 | -42.38166 | 37150 ft | 530 kts | 72° |
| 2026-05-04 11:39 | 49.63446 | -42.27164 | 37152 ft | 530 kts | 72° |
| 2026-05-04 11:41 | 49.69995 | -41.88659 | 37187 ft | 529 kts | 72° |
| 2026-05-04 11:41 | 49.71826 | -41.77737 | 37188 ft | 528 kts | 72° |
| 2026-05-04 11:42 | 49.73657 | -41.66747 | 37186 ft | 528 kts | 72° |
| 2026-05-04 11:42 | 49.75479 | -41.55745 | 37194 ft | 528 kts | 72° |
| 2026-05-04 11:43 | 49.77290 | -41.44730 | 37224 ft | 527 kts | 71° |
| 2026-05-04 11:43 | 49.79090 | -41.33708 | 37205 ft | 526 kts | 71° |
| 2026-05-04 11:44 | 49.80864 | -41.22778 | 37221 ft | 525 kts | 71° |
| 2026-05-04 11:44 | 49.82637 | -41.11788 | 37359 ft | 529 kts | 72° |
| 2026-05-04 11:44 | 49.83525 | -41.06260 | 37725 ft | 529 kts | 72° |
| 2026-05-04 11:45 | 49.84399 | -41.00792 | 38155 ft | 527 kts | 71° |
| 2026-05-04 11:45 | 49.85272 | -40.95297 | 38740 ft | 521 kts | 71° |
| 2026-05-04 11:45 | 49.86132 | -40.89868 | 39212 ft | 518 kts | 71° |
| 2026-05-04 11:46 | 49.87868 | -40.78910 | 39247 ft | 525 kts | 71° |
| 2026-05-04 11:46 | 49.89587 | -40.67954 | 39232 ft | 519 kts | 72° |
| 2026-05-04 11:47 | 49.91268 | -40.57164 | 39251 ft | 516 kts | 72° |
| 2026-05-04 11:47 | 49.92947 | -40.46339 | 39274 ft | 515 kts | 71° |
| 2026-05-04 11:48 | 49.94609 | -40.35537 | 39268 ft | 513 kts | 71° |
| 2026-05-04 11:48 | 49.96255 | -40.24771 | 39258 ft | 510 kts | 71° |
| 2026-05-04 11:49 | 49.97871 | -40.14131 | 39257 ft | 508 kts | 71° |
| 2026-05-04 11:49 | 49.99484 | -40.03451 | 39274 ft | 507 kts | 71° |
| 2026-05-04 11:50 | 50.01621 | -39.93099 | 39292 ft | 499 kts | 63° |
| 2026-05-04 11:50 | 50.04194 | -39.83050 | 39284 ft | 500 kts | 62° |
| 2026-05-04 11:51 | 50.06762 | -39.73035 | 39285 ft | 502 kts | 62° |
| 2026-05-04 11:51 | 50.09315 | -39.62886 | 39299 ft | 504 kts | 63° |
| 2026-05-04 11:52 | 50.11849 | -39.52680 | 39288 ft | 505 kts | 64° |
| 2026-05-04 11:52 | 50.14353 | -39.42527 | 39296 ft | 505 kts | 64° |
| 2026-05-04 11:53 | 50.16865 | -39.32298 | 39295 ft | 504 kts | 64° |
| 2026-05-04 11:53 | 50.19367 | -39.22076 | 39306 ft | 504 kts | 64° |
| 2026-05-04 11:55 | 50.29265 | -38.81167 | 39317 ft | 503 kts | 64° |
| 2026-05-04 11:56 | 50.31722 | -38.70897 | 39325 ft | 504 kts | 64° |
| 2026-05-04 11:56 | 50.34156 | -38.60673 | 39334 ft | 505 kts | 64° |
| 2026-05-04 11:57 | 50.36605 | -38.50339 | 39336 ft | 507 kts | 65° |
| 2026-05-04 11:57 | 50.39051 | -38.39961 | 39335 ft | 508 kts | 65° |
| 2026-05-04 11:58 | 50.41494 | -38.29548 | 39343 ft | 510 kts | 64° |
| 2026-05-04 11:58 | 50.43922 | -38.19152 | 39350 ft | 511 kts | 64° |
| 2026-05-04 11:59 | 50.46360 | -38.08655 | 39349 ft | 512 kts | 65° |
| 2026-05-04 11:59 | 50.48796 | -37.98121 | 39348 ft | 513 kts | 65° |
| 2026-05-04 12:00 | 50.51225 | -37.87556 | 39368 ft | 513 kts | 64° |
| 2026-05-04 12:00 | 50.53637 | -37.77014 | 39345 ft | 511 kts | 64° |
| 2026-05-04 12:01 | 50.56015 | -37.66573 | 39366 ft | 509 kts | 64° |
| 2026-05-04 12:02 | 50.64251 | -37.30017 | 39364 ft | 505 kts | 65° |
| 2026-05-04 12:03 | 50.66579 | -37.19569 | 39367 ft | 504 kts | 65° |
| 2026-05-04 12:03 | 50.68886 | -37.09161 | 39367 ft | 504 kts | 65° |
| 2026-05-04 12:04 | 50.71199 | -36.98677 | 39387 ft | 505 kts | 65° |
| 2026-05-04 12:04 | 50.73489 | -36.88243 | 39377 ft | 506 kts | 65° |
| 2026-05-04 12:05 | 50.75787 | -36.77716 | 39374 ft | 506 kts | 65° |
| 2026-05-04 12:05 | 50.78062 | -36.67243 | 39378 ft | 506 kts | 65° |
| 2026-05-04 12:06 | 50.80340 | -36.56699 | 39391 ft | 507 kts | 66° |
| 2026-05-04 12:06 | 50.82614 | -36.46125 | 39384 ft | 507 kts | 66° |
| 2026-05-04 12:07 | 50.84880 | -36.35526 | 39388 ft | 508 kts | 66° |
| 2026-05-04 12:07 | 50.87124 | -36.24981 | 39386 ft | 508 kts | 66° |
| 2026-05-04 12:08 | 50.89375 | -36.14346 | 39403 ft | 508 kts | 67° |
| 2026-05-04 12:08 | 50.91603 | -36.03765 | 39389 ft | 508 kts | 67° |
| 2026-05-04 12:09 | 50.93822 | -35.93169 | 39386 ft | 508 kts | 67° |
| 2026-05-04 12:09 | 50.96039 | -35.82524 | 39387 ft | 507 kts | 68° |
| 2026-05-04 12:10 | 50.98244 | -35.71881 | 39391 ft | 507 kts | 68° |
| 2026-05-04 12:10 | 51.00438 | -35.61238 | 39394 ft | 507 kts | 68° |
| 2026-05-04 12:11 | 51.02622 | -35.50588 | 39392 ft | 507 kts | 68° |
| 2026-05-04 12:11 | 51.04794 | -35.39939 | 39392 ft | 507 kts | 68° |
| 2026-05-04 12:12 | 51.06945 | -35.29330 | 39416 ft | 507 kts | 68° |
| 2026-05-04 12:12 | 51.09101 | -35.18648 | 39403 ft | 507 kts | 68° |
| 2026-05-04 12:14 | 51.17600 | -34.75930 | 39410 ft | 506 kts | 69° |
| 2026-05-04 12:15 | 51.19699 | -34.65235 | 39403 ft | 505 kts | 69° |
| 2026-05-04 12:15 | 51.21786 | -34.54544 | 39408 ft | 505 kts | 69° |
| 2026-05-04 12:16 | 51.23861 | -34.43851 | 39412 ft | 504 kts | 69° |
| 2026-05-04 12:16 | 51.25926 | -34.33150 | 39424 ft | 504 kts | 70° |
| 2026-05-04 12:17 | 51.27981 | -34.22444 | 39405 ft | 504 kts | 70° |
| 2026-05-04 12:17 | 51.30025 | -34.11731 | 39409 ft | 504 kts | 70° |
| 2026-05-04 12:18 | 51.32047 | -34.01077 | 39428 ft | 504 kts | 70° |
| 2026-05-04 12:18 | 51.34073 | -33.90338 | 39437 ft | 504 kts | 70° |
| 2026-05-04 12:19 | 51.36089 | -33.79590 | 39424 ft | 504 kts | 71° |
| 2026-05-04 12:19 | 51.38095 | -33.68837 | 39426 ft | 504 kts | 71° |
| 2026-05-04 12:20 | 51.40091 | -33.58068 | 39426 ft | 504 kts | 71° |
| 2026-05-04 12:20 | 51.42076 | -33.47302 | 39447 ft | 504 kts | 71° |
| 2026-05-04 12:21 | 51.44041 | -33.36581 | 39434 ft | 504 kts | 71° |
| 2026-05-04 12:21 | 51.46012 | -33.25767 | 39434 ft | 504 kts | 71° |
| 2026-05-04 12:22 | 51.47966 | -33.14976 | 39432 ft | 503 kts | 71° |
| 2026-05-04 12:22 | 51.49896 | -33.04259 | 39441 ft | 503 kts | 71° |
| 2026-05-04 12:23 | 51.51831 | -32.93448 | 39449 ft | 502 kts | 72° |
| 2026-05-04 12:23 | 51.53749 | -32.82667 | 39441 ft | 502 kts | 72° |
| 2026-05-04 12:24 | 51.55642 | -32.71964 | 39441 ft | 501 kts | 72° |
| 2026-05-04 12:24 | 51.57537 | -32.61184 | 39441 ft | 500 kts | 72° |
| 2026-05-04 12:25 | 51.59419 | -32.50417 | 39457 ft | 500 kts | 72° |
| 2026-05-04 12:25 | 51.61293 | -32.39625 | 39444 ft | 500 kts | 72° |
| 2026-05-04 12:26 | 51.63157 | -32.28829 | 39444 ft | 500 kts | 72° |
| 2026-05-04 12:26 | 51.64998 | -32.18098 | 39444 ft | 500 kts | 72° |
| 2026-05-04 12:27 | 51.66839 | -32.07303 | 39453 ft | 500 kts | 73° |
| 2026-05-04 12:27 | 51.68671 | -31.96490 | 39452 ft | 500 kts | 73° |
| 2026-05-04 12:28 | 51.70495 | -31.85661 | 39444 ft | 500 kts | 73° |
| 2026-05-04 12:28 | 51.72307 | -31.74831 | 39449 ft | 500 kts | 73° |
| 2026-05-04 12:29 | 51.74111 | -31.63986 | 39447 ft | 500 kts | 73° |
| 2026-05-04 12:29 | 51.75903 | -31.53141 | 39456 ft | 500 kts | 73° |
| 2026-05-04 12:30 | 51.77687 | -31.42276 | 39447 ft | 500 kts | 73° |
| 2026-05-04 12:30 | 51.79462 | -31.31395 | 39446 ft | 500 kts | 73° |
| 2026-05-04 12:31 | 51.80929 | -31.22348 | 39444 ft | 500 kts | 73° |
| 2026-05-04 12:31 | 51.82683 | -31.11468 | 39449 ft | 500 kts | 74° |
| 2026-05-04 12:32 | 51.85299 | -30.95112 | 39442 ft | 500 kts | 74° |
| 2026-05-04 12:33 | 51.87014 | -30.84297 | 39445 ft | 500 kts | 74° |
| 2026-05-04 12:33 | 51.88733 | -30.73385 | 39448 ft | 500 kts | 74° |
| 2026-05-04 12:34 | 51.90442 | -30.62472 | 39445 ft | 500 kts | 74° |
| 2026-05-04 12:34 | 51.92142 | -30.51533 | 39443 ft | 500 kts | 74° |
| 2026-05-04 12:35 | 51.93830 | -30.40603 | 39444 ft | 500 kts | 75° |
| 2026-05-04 12:35 | 51.95509 | -30.29659 | 39444 ft | 500 kts | 75° |
| 2026-05-04 12:36 | 51.97180 | -30.18691 | 39453 ft | 500 kts | 75° |
| 2026-05-04 12:36 | 51.98833 | -30.07771 | 39434 ft | 500 kts | 75° |
| 2026-05-04 12:37 | 52.00480 | -29.96790 | 39449 ft | 500 kts | 75° |
| 2026-05-04 12:37 | 52.02064 | -29.85854 | 39452 ft | 500 kts | 76° |
| 2026-05-04 12:38 | 52.03632 | -29.74847 | 39439 ft | 500 kts | 76° |
| 2026-05-04 12:38 | 52.05192 | -29.63841 | 39438 ft | 500 kts | 76° |
| 2026-05-04 12:39 | 52.06750 | -29.52811 | 39442 ft | 500 kts | 76° |
| 2026-05-04 12:39 | 52.08292 | -29.41830 | 39438 ft | 500 kts | 76° |
| 2026-05-04 12:40 | 52.09830 | -29.30793 | 39438 ft | 500 kts | 76° |
| 2026-05-04 12:40 | 52.11349 | -29.19804 | 39445 ft | 500 kts | 76° |
| 2026-05-04 12:41 | 52.12869 | -29.08730 | 39436 ft | 500 kts | 76° |
| 2026-05-04 12:41 | 52.14374 | -28.97679 | 39436 ft | 499 kts | 76° |
| 2026-05-04 12:42 | 52.15857 | -28.86707 | 39435 ft | 499 kts | 76° |
| 2026-05-04 12:42 | 52.17340 | -28.75659 | 39433 ft | 498 kts | 77° |
| 2026-05-04 12:43 | 52.18809 | -28.64624 | 39437 ft | 497 kts | 77° |
| 2026-05-04 12:43 | 52.20257 | -28.53663 | 39429 ft | 497 kts | 77° |
| 2026-05-04 12:44 | 52.21704 | -28.42630 | 39431 ft | 496 kts | 77° |
| 2026-05-04 12:44 | 52.23135 | -28.31625 | 39428 ft | 496 kts | 77° |
| 2026-05-04 12:45 | 52.24550 | -28.20665 | 39438 ft | 496 kts | 77° |
| 2026-05-04 12:45 | 52.25966 | -28.09607 | 39429 ft | 496 kts | 77° |
| 2026-05-04 12:46 | 52.27368 | -27.98577 | 39428 ft | 495 kts | 77° |
| 2026-05-04 12:46 | 52.28747 | -27.87633 | 39429 ft | 495 kts | 77° |
| 2026-05-04 12:47 | 52.30123 | -27.76629 | 39429 ft | 495 kts | 77° |
| 2026-05-04 12:47 | 52.31495 | -27.65569 | 39433 ft | 495 kts | 77° |
| 2026-05-04 12:48 | 52.32853 | -27.54529 | 39425 ft | 495 kts | 77° |
| 2026-05-04 12:48 | 52.34193 | -27.43549 | 39426 ft | 494 kts | 78° |
| 2026-05-04 12:49 | 52.35529 | -27.32512 | 39423 ft | 494 kts | 78° |
| 2026-05-04 12:49 | 52.36848 | -27.21520 | 39434 ft | 494 kts | 78° |
| 2026-05-04 12:50 | 52.38163 | -27.10476 | 39422 ft | 494 kts | 78° |
| 2026-05-04 12:50 | 52.39465 | -26.99442 | 39424 ft | 493 kts | 78° |
| 2026-05-04 12:51 | 52.40755 | -26.88420 | 39407 ft | 493 kts | 78° |
| 2026-05-04 12:51 | 52.42026 | -26.77464 | 39421 ft | 492 kts | 78° |
| 2026-05-04 12:52 | 52.43294 | -26.66436 | 39418 ft | 492 kts | 78° |
| 2026-05-04 12:52 | 52.44550 | -26.55426 | 39413 ft | 491 kts | 78° |
| 2026-05-04 12:53 | 52.45794 | -26.44415 | 39415 ft | 491 kts | 78° |
| 2026-05-04 12:53 | 52.47021 | -26.33465 | 39415 ft | 490 kts | 78° |
| 2026-05-04 12:54 | 52.48248 | -26.22422 | 39415 ft | 490 kts | 78° |
| 2026-05-04 12:54 | 52.49453 | -26.11477 | 39410 ft | 490 kts | 78° |
| 2026-05-04 12:55 | 52.50657 | -26.00435 | 39413 ft | 490 kts | 79° |
| 2026-05-04 12:55 | 52.51842 | -25.89474 | 39413 ft | 490 kts | 79° |
| 2026-05-04 12:56 | 52.53026 | -25.78424 | 39421 ft | 491 kts | 79° |
| 2026-05-04 12:56 | 52.54199 | -25.67365 | 39407 ft | 491 kts | 79° |
| 2026-05-04 12:57 | 52.55358 | -25.56348 | 39401 ft | 491 kts | 79° |
| 2026-05-04 12:57 | 52.56511 | -25.45273 | 39400 ft | 490 kts | 79° |
| 2026-05-04 12:58 | 52.57645 | -25.34288 | 39402 ft | 490 kts | 79° |
| 2026-05-04 12:58 | 52.58776 | -25.23218 | 39408 ft | 490 kts | 79° |
| 2026-05-04 12:59 | 52.59896 | -25.12154 | 39399 ft | 489 kts | 79° |
| 2026-05-04 12:59 | 52.60996 | -25.01173 | 39398 ft | 489 kts | 79° |
| 2026-05-04 13:00 | 52.62094 | -24.90109 | 39393 ft | 489 kts | 79° |
| 2026-05-04 13:00 | 52.63181 | -24.79051 | 39396 ft | 488 kts | 79° |
| 2026-05-04 13:01 | 52.64250 | -24.68059 | 39392 ft | 488 kts | 79° |
| 2026-05-04 13:01 | 52.65316 | -24.56993 | 39385 ft | 488 kts | 80° |
| 2026-05-04 13:02 | 52.66363 | -24.46016 | 39385 ft | 488 kts | 80° |
| 2026-05-04 13:02 | 52.67406 | -24.34965 | 39385 ft | 487 kts | 80° |
| 2026-05-04 13:03 | 52.68441 | -24.23885 | 39394 ft | 487 kts | 80° |
| 2026-05-04 13:03 | 52.69456 | -24.12903 | 39382 ft | 488 kts | 80° |
| 2026-05-04 13:04 | 52.70469 | -24.01823 | 39384 ft | 488 kts | 80° |
| 2026-05-04 13:04 | 52.71474 | -23.90713 | 39375 ft | 488 kts | 80° |
| 2026-05-04 13:05 | 52.72466 | -23.79631 | 39374 ft | 488 kts | 81° |
| 2026-05-04 13:05 | 52.73443 | -23.68596 | 39380 ft | 489 kts | 81° |
| 2026-05-04 13:06 | 52.74417 | -23.57473 | 39374 ft | 489 kts | 81° |
| 2026-05-04 13:06 | 52.75380 | -23.46351 | 39369 ft | 489 kts | 81° |
| 2026-05-04 13:07 | 52.76327 | -23.35288 | 39361 ft | 489 kts | 81° |
| 2026-05-04 13:07 | 52.77272 | -23.24124 | 39370 ft | 489 kts | 81° |
| 2026-05-04 13:08 | 52.78200 | -23.13026 | 39361 ft | 489 kts | 81° |
| 2026-05-04 13:08 | 52.79123 | -23.01865 | 39360 ft | 489 kts | 81° |
| 2026-05-04 13:09 | 52.80035 | -22.90711 | 39358 ft | 489 kts | 81° |
| 2026-05-04 13:09 | 52.80932 | -22.79604 | 39358 ft | 489 kts | 81° |
| 2026-05-04 13:10 | 52.81823 | -22.68435 | 39353 ft | 489 kts | 82° |
| 2026-05-04 13:10 | 52.82698 | -22.57331 | 39347 ft | 489 kts | 82° |
| 2026-05-04 13:11 | 52.83569 | -22.46144 | 39347 ft | 489 kts | 82° |
| 2026-05-04 13:11 | 52.84429 | -22.34963 | 39348 ft | 489 kts | 82° |
| 2026-05-04 13:12 | 52.85273 | -22.23849 | 39345 ft | 489 kts | 82° |
| 2026-05-04 13:12 | 52.86112 | -22.12655 | 39340 ft | 490 kts | 82° |
| 2026-05-04 13:13 | 52.86935 | -22.01521 | 39344 ft | 490 kts | 82° |
| 2026-05-04 13:13 | 52.87755 | -21.90291 | 39336 ft | 490 kts | 82° |
| 2026-05-04 13:14 | 52.88564 | -21.79074 | 39334 ft | 490 kts | 82° |
| 2026-05-04 13:14 | 52.89357 | -21.67910 | 39341 ft | 490 kts | 82° |
| 2026-05-04 13:15 | 52.90146 | -21.56660 | 39328 ft | 490 kts | 82° |
| 2026-05-04 13:15 | 52.90919 | -21.45483 | 39334 ft | 490 kts | 82° |
| 2026-05-04 13:16 | 52.91686 | -21.34229 | 39332 ft | 490 kts | 83° |
| 2026-05-04 13:16 | 52.92438 | -21.23038 | 39328 ft | 490 kts | 83° |
| 2026-05-04 13:17 | 52.93184 | -21.11783 | 39323 ft | 490 kts | 83° |
| 2026-05-04 13:17 | 52.93919 | -21.00529 | 39317 ft | 490 kts | 83° |
| 2026-05-04 13:18 | 52.94638 | -20.89346 | 39316 ft | 490 kts | 83° |
| 2026-05-04 13:18 | 52.95352 | -20.78068 | 39317 ft | 490 kts | 83° |
| 2026-05-04 13:19 | 52.96051 | -20.66868 | 39323 ft | 490 kts | 83° |
| 2026-05-04 13:19 | 52.96745 | -20.55574 | 39314 ft | 491 kts | 83° |
| 2026-05-04 13:20 | 52.97423 | -20.44364 | 39304 ft | 490 kts | 83° |
| 2026-05-04 13:20 | 52.98093 | -20.33097 | 39305 ft | 490 kts | 83° |
| 2026-05-04 13:21 | 52.98753 | -20.21817 | 39300 ft | 490 kts | 83° |
| 2026-05-04 13:21 | 52.99400 | -20.10602 | 39306 ft | 489 kts | 83° |
| 2026-05-04 13:22 | 53.00023 | -19.99396 | 39294 ft | 489 kts | 85° |
| 2026-05-04 13:22 | 53.00316 | -19.88092 | 39304 ft | 489 kts | 87° |
| 2026-05-04 13:23 | 53.00497 | -19.76791 | 39297 ft | 489 kts | 88° |
| 2026-05-04 13:23 | 53.00677 | -19.65486 | 39299 ft | 490 kts | 87° |
| 2026-05-04 13:24 | 53.00836 | -19.56088 | 39291 ft | 490 kts | 87° |
| 2026-05-04 13:24 | 53.01057 | -19.42923 | 39283 ft | 490 kts | 88° |
| 2026-05-04 13:25 | 53.01294 | -19.27842 | 39287 ft | 490 kts | 88° |
| 2026-05-04 13:25 | 53.01458 | -19.16510 | 39280 ft | 490 kts | 88° |
| 2026-05-04 13:26 | 53.01611 | -19.05177 | 39280 ft | 490 kts | 88° |
| 2026-05-04 13:26 | 53.01753 | -18.93855 | 39276 ft | 490 kts | 88° |
| 2026-05-04 13:27 | 53.01884 | -18.82537 | 39271 ft | 490 kts | 88° |
| 2026-05-04 13:27 | 53.02003 | -18.71289 | 39271 ft | 490 kts | 88° |
| 2026-05-04 13:28 | 53.02113 | -18.59978 | 39273 ft | 489 kts | 88° |
| 2026-05-04 13:28 | 53.02212 | -18.48681 | 39272 ft | 488 kts | 88° |
| 2026-05-04 13:29 | 53.02300 | -18.37396 | 39267 ft | 488 kts | 88° |
| 2026-05-04 13:29 | 53.02377 | -18.26137 | 39261 ft | 487 kts | 88° |
| 2026-05-04 13:30 | 53.02444 | -18.14891 | 39258 ft | 487 kts | 88° |
| 2026-05-04 13:30 | 53.02499 | -18.03703 | 39264 ft | 487 kts | 89° |
| 2026-05-04 13:31 | 53.02545 | -17.92443 | 39253 ft | 487 kts | 89° |
| 2026-05-04 13:31 | 53.02579 | -17.81191 | 39251 ft | 487 kts | 89° |
| 2026-05-04 13:32 | 53.02604 | -17.69932 | 39248 ft | 487 kts | 89° |
| 2026-05-04 13:32 | 53.02617 | -17.58687 | 39251 ft | 487 kts | 89° |
| 2026-05-04 13:33 | 53.02620 | -17.47504 | 39250 ft | 487 kts | 89° |
| 2026-05-04 13:33 | 53.02612 | -17.36247 | 39236 ft | 487 kts | 89° |
| 2026-05-04 13:34 | 53.02594 | -17.25001 | 39240 ft | 487 kts | 89° |
| 2026-05-04 13:34 | 53.02565 | -17.13754 | 39231 ft | 487 kts | 89° |
| 2026-05-04 13:35 | 53.02502 | -16.96890 | 39242 ft | 486 kts | 90° |
| 2026-05-04 13:36 | 53.02447 | -16.85652 | 39224 ft | 486 kts | 90° |
| 2026-05-04 13:36 | 53.02381 | -16.74507 | 39223 ft | 485 kts | 90° |
| 2026-05-04 13:37 | 53.02305 | -16.63319 | 39230 ft | 484 kts | 90° |
| 2026-05-04 13:37 | 53.02219 | -16.52123 | 39232 ft | 483 kts | 90° |
| 2026-05-04 13:38 | 53.02122 | -16.40947 | 39240 ft | 483 kts | 90° |
| 2026-05-04 13:38 | 53.02015 | -16.29859 | 39226 ft | 483 kts | 90° |
| 2026-05-04 13:39 | 53.01897 | -16.18691 | 39214 ft | 483 kts | 91° |
| 2026-05-04 13:39 | 53.01769 | -16.07539 | 39221 ft | 483 kts | 91° |
| 2026-05-04 13:40 | 53.01631 | -15.96398 | 39221 ft | 482 kts | 91° |
| 2026-05-04 13:40 | 53.01482 | -15.85235 | 39226 ft | 483 kts | 91° |
| 2026-05-04 13:41 | 53.01324 | -15.74153 | 39220 ft | 483 kts | 91° |
| 2026-05-04 13:41 | 53.01154 | -15.62995 | 39217 ft | 483 kts | 91° |
| 2026-05-04 13:42 | 53.00879 | -15.46235 | 39220 ft | 483 kts | 91° |
| 2026-05-04 13:42 | 53.00682 | -15.35070 | 39226 ft | 483 kts | 91° |
| 2026-05-04 13:43 | 53.00470 | -15.23999 | 39216 ft | 480 kts | 91° |
| 2026-05-04 13:43 | 53.00269 | -15.12915 | 39200 ft | 477 kts | 91° |
| 2026-05-04 13:44 | 53.00045 | -15.01969 | 39200 ft | 475 kts | 91° |
| 2026-05-04 13:44 | 52.99940 | -14.90988 | 39199 ft | 473 kts | 89° |
| 2026-05-04 13:45 | 53.00020 | -14.80135 | 39216 ft | 471 kts | 89° |
| 2026-05-04 13:45 | 53.00085 | -14.69258 | 39200 ft | 470 kts | 89° |
| 2026-05-04 13:46 | 53.00108 | -14.58380 | 39202 ft | 470 kts | 89° |
| 2026-05-04 13:46 | 53.00107 | -14.47582 | 39200 ft | 470 kts | 89° |
| 2026-05-04 13:47 | 53.00097 | -14.36731 | 39193 ft | 470 kts | 89° |
| 2026-05-04 13:47 | 53.00079 | -14.25879 | 39202 ft | 470 kts | 89° |
| 2026-05-04 13:48 | 53.00054 | -14.15083 | 39195 ft | 470 kts | 89° |
| 2026-05-04 13:48 | 53.00018 | -14.04213 | 39193 ft | 470 kts | 89° |
| 2026-05-04 13:49 | 52.99541 | -13.93373 | 39197 ft | 471 kts | 96° |
| 2026-05-04 13:49 | 52.98603 | -13.82629 | 39191 ft | 471 kts | 97° |
| 2026-05-04 13:50 | 52.97643 | -13.71860 | 39190 ft | 471 kts | 97° |
| 2026-05-04 13:50 | 52.96702 | -13.61148 | 39184 ft | 471 kts | 97° |
| 2026-05-04 13:51 | 52.95766 | -13.50408 | 39187 ft | 470 kts | 96° |
| 2026-05-04 13:51 | 52.94835 | -13.39757 | 39179 ft | 469 kts | 97° |
| 2026-05-04 13:52 | 52.93410 | -13.23756 | 39190 ft | 467 kts | 97° |
| 2026-05-04 13:53 | 52.92451 | -13.13111 | 39184 ft | 467 kts | 97° |
| 2026-05-04 13:53 | 52.91484 | -13.02495 | 39180 ft | 466 kts | 97° |
| 2026-05-04 13:54 | 52.90012 | -12.86528 | 39179 ft | 466 kts | 97° |
| 2026-05-04 13:55 | 52.88526 | -12.70664 | 39178 ft | 466 kts | 97° |
| 2026-05-04 13:55 | 52.87013 | -12.54741 | 39170 ft | 466 kts | 97° |
| 2026-05-04 13:56 | 52.85991 | -12.44127 | 39171 ft | 466 kts | 97° |
| 2026-05-04 13:57 | 52.84444 | -12.28235 | 39168 ft | 467 kts | 97° |
| 2026-05-04 13:58 | 52.82352 | -12.07109 | 39171 ft | 467 kts | 97° |
| 2026-05-04 13:58 | 52.80754 | -11.91235 | 39165 ft | 466 kts | 97° |
| 2026-05-04 13:59 | 52.79677 | -11.80667 | 39167 ft | 466 kts | 97° |
| 2026-05-04 14:00 | 52.78052 | -11.64884 | 39163 ft | 465 kts | 97° |
| 2026-05-04 14:00 | 52.76400 | -11.49068 | 39160 ft | 465 kts | 97° |
| 2026-05-04 14:01 | 52.75292 | -11.38574 | 39153 ft | 465 kts | 98° |
| 2026-05-04 14:02 | 52.73612 | -11.22834 | 39161 ft | 465 kts | 98° |
| 2026-05-04 14:02 | 52.72481 | -11.12353 | 39162 ft | 465 kts | 97° |
| 2026-05-04 14:03 | 52.71335 | -11.01832 | 39152 ft | 465 kts | 97° |
| 2026-05-04 14:03 | 52.70182 | -10.91330 | 39153 ft | 465 kts | 98° |
| 2026-05-04 14:04 | 52.68435 | -10.75590 | 39146 ft | 465 kts | 98° |
| 2026-05-04 14:04 | 52.67258 | -10.65095 | 39142 ft | 465 kts | 98° |
| 2026-05-04 14:05 | 52.65483 | -10.49439 | 39139 ft | 465 kts | 98° |
| 2026-05-04 14:06 | 52.64283 | -10.38959 | 39148 ft | 465 kts | 98° |
| 2026-05-04 14:06 | 52.63075 | -10.28495 | 39138 ft | 465 kts | 98° |
| 2026-05-04 14:07 | 52.61856 | -10.18021 | 39133 ft | 466 kts | 98° |
| 2026-05-04 14:07 | 52.60636 | -10.07626 | 39134 ft | 466 kts | 98° |
| 2026-05-04 14:08 | 52.59397 | -9.97152 | 39132 ft | 466 kts | 98° |
| 2026-05-04 14:08 | 52.58146 | -9.86664 | 39138 ft | 466 kts | 98° |
| 2026-05-04 14:09 | 52.56261 | -9.71014 | 39124 ft | 466 kts | 98° |
| 2026-05-04 14:10 | 52.54354 | -9.55362 | 39110 ft | 466 kts | 98° |
| 2026-05-04 14:10 | 52.53067 | -9.44900 | 39116 ft | 466 kts | 98° |
| 2026-05-04 14:11 | 52.51780 | -9.34528 | 39105 ft | 466 kts | 99° |
| 2026-05-04 14:11 | 52.49826 | -9.18917 | 39096 ft | 466 kts | 99° |
| 2026-05-04 14:12 | 52.48507 | -9.08483 | 39101 ft | 466 kts | 99° |
| 2026-05-04 14:13 | 52.46522 | -8.92915 | 39099 ft | 466 kts | 99° |
| 2026-05-04 14:13 | 52.45181 | -8.82507 | 39095 ft | 466 kts | 99° |
| 2026-05-04 14:14 | 52.43841 | -8.72173 | 39101 ft | 466 kts | 99° |
| 2026-05-04 14:14 | 52.41802 | -8.56592 | 39075 ft | 467 kts | 99° |
| 2026-05-04 14:15 | 52.39048 | -8.35825 | 39084 ft | 467 kts | 100° |
| 2026-05-04 14:16 | 52.36958 | -8.20256 | 39084 ft | 468 kts | 100° |
| 2026-05-04 14:17 | 52.34845 | -8.04686 | 39075 ft | 469 kts | 100° |
| 2026-05-04 14:18 | 52.32701 | -7.89049 | 39060 ft | 469 kts | 101° |
| 2026-05-04 14:19 | 52.29818 | -7.68291 | 39062 ft | 470 kts | 101° |
| 2026-05-04 14:19 | 52.28358 | -7.57879 | 39059 ft | 470 kts | 101° |
| 2026-05-04 14:20 | 52.26885 | -7.47452 | 39071 ft | 471 kts | 101° |
| 2026-05-04 14:20 | 52.25652 | -7.38780 | 39070 ft | 471 kts | 102° |
| 2026-05-04 14:21 | 52.23168 | -7.21446 | 39078 ft | 471 kts | 102° |
| 2026-05-04 14:21 | 52.21903 | -7.12708 | 39077 ft | 472 kts | 102° |
| 2026-05-04 14:22 | 52.20392 | -7.02328 | 39074 ft | 472 kts | 102° |
| 2026-05-04 14:22 | 52.18874 | -6.91964 | 39074 ft | 472 kts | 102° |
| 2026-05-04 14:23 | 52.16580 | -6.76428 | 39070 ft | 471 kts | 102° |
| 2026-05-04 14:24 | 52.15036 | -6.66061 | 39062 ft | 470 kts | 102° |
| 2026-05-04 14:24 | 52.13486 | -6.55722 | 39063 ft | 469 kts | 102° |
| 2026-05-04 14:25 | 52.11933 | -6.45425 | 39064 ft | 468 kts | 102° |
| 2026-05-04 14:25 | 52.09595 | -6.30028 | 39066 ft | 469 kts | 103° |
| 2026-05-04 14:26 | 52.08024 | -6.19788 | 39055 ft | 469 kts | 103° |
| 2026-05-04 14:26 | 52.06429 | -6.09445 | 39065 ft | 470 kts | 104° |
| 2026-05-04 14:27 | 52.04386 | -5.99421 | 39054 ft | 471 kts | 114° |
| 2026-05-04 14:27 | 52.01628 | -5.89751 | 39055 ft | 471 kts | 114° |
| 2026-05-04 14:28 | 51.98863 | -5.80146 | 39048 ft | 472 kts | 114° |
| 2026-05-04 14:28 | 51.96103 | -5.70463 | 39052 ft | 472 kts | 114° |
| 2026-05-04 14:29 | 51.90604 | -5.51165 | 39051 ft | 472 kts | 114° |
| 2026-05-04 14:30 | 51.87839 | -5.41525 | 39036 ft | 472 kts | 115° |
| 2026-05-04 14:31 | 51.83674 | -5.27078 | 39035 ft | 471 kts | 115° |
| 2026-05-04 14:32 | 51.78121 | -5.07946 | 39030 ft | 470 kts | 115° |
| 2026-05-04 14:32 | 51.75466 | -4.98349 | 39028 ft | 470 kts | 112° |
| 2026-05-04 14:33 | 51.72941 | -4.88573 | 39038 ft | 471 kts | 112° |
| 2026-05-04 14:33 | 51.70398 | -4.78822 | 39016 ft | 472 kts | 113° |
| 2026-05-04 14:34 | 51.67840 | -4.69145 | 39026 ft | 472 kts | 113° |
| 2026-05-04 14:34 | 51.65240 | -4.59396 | 39025 ft | 473 kts | 113° |
| 2026-05-04 14:35 | 51.62628 | -4.49660 | 39023 ft | 474 kts | 113° |
| 2026-05-04 14:35 | 51.60002 | -4.39900 | 39016 ft | 475 kts | 113° |
| 2026-05-04 14:36 | 51.57388 | -4.30216 | 39015 ft | 475 kts | 114° |
| 2026-05-04 14:36 | 51.54859 | -4.20412 | 39016 ft | 475 kts | 109° |
| 2026-05-04 14:37 | 51.53299 | -4.10114 | 39015 ft | 475 kts | 100° |
| 2026-05-04 14:37 | 51.52209 | -3.99656 | 39008 ft | 475 kts | 100° |
| 2026-05-04 14:38 | 51.51056 | -3.89207 | 39014 ft | 475 kts | 101° |
| 2026-05-04 14:38 | 51.49847 | -3.78772 | 39008 ft | 475 kts | 101° |
| 2026-05-04 14:38 | 51.49227 | -3.73535 | 38490 ft | 483 kts | 101° |
| 2026-05-04 14:39 | 51.48598 | -3.68210 | 37729 ft | 484 kts | 101° |
| 2026-05-04 14:39 | 51.47984 | -3.62930 | 36988 ft | 480 kts | 100° |
| 2026-05-04 14:39 | 51.47571 | -3.57746 | 36253 ft | 466 kts | 96° |
| 2026-05-04 14:40 | 51.47006 | -3.47631 | 35167 ft | 450 kts | 96° |
| 2026-05-04 14:40 | 51.46734 | -3.42655 | 34652 ft | 446 kts | 96° |
| 2026-05-04 14:40 | 51.46456 | -3.37728 | 34151 ft | 442 kts | 96° |
| 2026-05-04 14:40 | 51.46173 | -3.32841 | 33555 ft | 438 kts | 96° |
| 2026-05-04 14:41 | 51.45889 | -3.28001 | 33013 ft | 434 kts | 96° |
| 2026-05-04 14:41 | 51.45602 | -3.23212 | 32513 ft | 429 kts | 96° |
| 2026-05-04 14:41 | 51.45027 | -3.13788 | 31527 ft | 421 kts | 97° |
| 2026-05-04 14:42 | 51.44454 | -3.04532 | 30567 ft | 414 kts | 97° |
| 2026-05-04 14:42 | 51.44169 | -2.99964 | 30095 ft | 410 kts | 97° |
| 2026-05-04 14:42 | 51.43883 | -2.95424 | 29541 ft | 408 kts | 97° |
| 2026-05-04 14:43 | 51.43601 | -2.90965 | 29057 ft | 404 kts | 98° |
| 2026-05-04 14:43 | 51.43318 | -2.86514 | 28554 ft | 400 kts | 98° |
| 2026-05-04 14:43 | 51.43032 | -2.82104 | 28094 ft | 396 kts | 98° |
| 2026-05-04 14:43 | 51.42753 | -2.77730 | 27624 ft | 393 kts | 98° |
| 2026-05-04 14:44 | 51.42477 | -2.73388 | 27137 ft | 391 kts | 98° |
| 2026-05-04 14:44 | 51.42198 | -2.69066 | 26677 ft | 388 kts | 98° |
| 2026-05-04 14:44 | 51.41917 | -2.64781 | 26211 ft | 386 kts | 98° |
| 2026-05-04 14:44 | 51.41634 | -2.60511 | 25762 ft | 384 kts | 98° |
| 2026-05-04 14:45 | 51.41356 | -2.56304 | 25303 ft | 384 kts | 98° |
| 2026-05-04 14:45 | 51.41073 | -2.52059 | 24838 ft | 382 kts | 98° |
| 2026-05-04 14:45 | 51.40789 | -2.47826 | 24380 ft | 381 kts | 98° |
| 2026-05-04 14:45 | 51.40506 | -2.43620 | 23926 ft | 379 kts | 98° |
| 2026-05-04 14:46 | 51.40221 | -2.39424 | 23453 ft | 378 kts | 98° |
| 2026-05-04 14:46 | 51.39935 | -2.35249 | 22906 ft | 377 kts | 98° |
| 2026-05-04 14:46 | 51.39650 | -2.31086 | 22452 ft | 374 kts | 98° |
| 2026-05-04 14:46 | 51.39368 | -2.26958 | 21994 ft | 372 kts | 98° |
| 2026-05-04 14:47 | 51.39087 | -2.22852 | 21537 ft | 370 kts | 98° |
| 2026-05-04 14:47 | 51.38804 | -2.18769 | 21085 ft | 368 kts | 98° |
| 2026-05-04 14:47 | 51.38523 | -2.14761 | 20639 ft | 366 kts | 98° |
| 2026-05-04 14:47 | 51.38238 | -2.10707 | 20198 ft | 365 kts | 98° |
| 2026-05-04 14:48 | 51.37953 | -2.06672 | 19748 ft | 363 kts | 98° |
| 2026-05-04 14:48 | 51.37669 | -2.02659 | 19304 ft | 362 kts | 98° |
| 2026-05-04 14:48 | 51.37383 | -1.98659 | 18859 ft | 361 kts | 98° |
| 2026-05-04 14:48 | 51.37097 | -1.94670 | 18426 ft | 361 kts | 98° |
| 2026-05-04 14:49 | 51.36809 | -1.90684 | 17913 ft | 361 kts | 98° |
| 2026-05-04 14:49 | 51.36523 | -1.86747 | 17445 ft | 359 kts | 98° |
| 2026-05-04 14:49 | 51.36234 | -1.82784 | 16984 ft | 358 kts | 98° |
| 2026-05-04 14:49 | 51.35949 | -1.78837 | 16525 ft | 356 kts | 98° |
| 2026-05-04 14:50 | 51.35663 | -1.74911 | 16081 ft | 355 kts | 98° |
| 2026-05-04 14:50 | 51.35372 | -1.70980 | 15645 ft | 354 kts | 98° |
| 2026-05-04 14:50 | 51.35081 | -1.67062 | 15184 ft | 354 kts | 98° |
| 2026-05-04 14:50 | 51.34791 | -1.63153 | 14741 ft | 353 kts | 98° |
| 2026-05-04 14:51 | 51.34500 | -1.59256 | 14296 ft | 353 kts | 98° |
| 2026-05-04 14:51 | 51.34211 | -1.55413 | 13935 ft | 350 kts | 98° |
| 2026-05-04 14:51 | 51.33926 | -1.51588 | 13676 ft | 342 kts | 98° |
| 2026-05-04 14:51 | 51.33648 | -1.47850 | 13418 ft | 336 kts | 98° |
| 2026-05-04 14:52 | 51.33371 | -1.44158 | 13189 ft | 334 kts | 98° |
| 2026-05-04 14:52 | 51.33091 | -1.40454 | 12953 ft | 336 kts | 98° |
| 2026-05-04 14:52 | 51.32810 | -1.36735 | 12729 ft | 338 kts | 98° |
| 2026-05-04 14:52 | 51.32526 | -1.33007 | 12488 ft | 336 kts | 98° |
| 2026-05-04 14:53 | 51.32246 | -1.29316 | 12247 ft | 333 kts | 98° |
| 2026-05-04 14:53 | 51.31966 | -1.25652 | 12019 ft | 331 kts | 98° |
| 2026-05-04 14:53 | 51.31686 | -1.22012 | 11800 ft | 329 kts | 98° |
| 2026-05-04 14:53 | 51.31407 | -1.18397 | 11569 ft | 327 kts | 98° |
| 2026-05-04 14:54 | 51.31199 | -1.14782 | 11344 ft | 325 kts | 94° |
| 2026-05-04 14:54 | 51.31156 | -1.11179 | 11118 ft | 324 kts | 91° |
| 2026-05-04 14:54 | 51.31155 | -1.07629 | 10913 ft | 323 kts | 91° |
| 2026-05-04 14:54 | 51.31153 | -1.04039 | 10717 ft | 323 kts | 91° |
| 2026-05-04 14:55 | 51.31140 | -1.00469 | 10485 ft | 319 kts | 91° |
| 2026-05-04 14:55 | 51.31117 | -0.96938 | 10251 ft | 314 kts | 91° |
| 2026-05-04 14:55 | 51.31089 | -0.93488 | 10035 ft | 307 kts | 92° |
| 2026-05-04 14:55 | 51.31059 | -0.90149 | 9920 ft | 290 kts | 91° |
| 2026-05-04 14:56 | 51.31029 | -0.87005 | 9643 ft | 276 kts | 92° |
| 2026-05-04 14:56 | 51.30996 | -0.83911 | 9457 ft | 280 kts | 92° |
| 2026-05-04 14:56 | 51.30961 | -0.80832 | 9258 ft | 280 kts | 92° |
| 2026-05-04 14:56 | 51.30925 | -0.77720 | 9056 ft | 279 kts | 92° |
| 2026-05-04 14:57 | 51.30890 | -0.74619 | 8858 ft | 278 kts | 92° |
| 2026-05-04 14:57 | 51.30853 | -0.71537 | 8662 ft | 276 kts | 92° |
| 2026-05-04 14:57 | 51.30816 | -0.68475 | 8483 ft | 275 kts | 91° |
| 2026-05-04 14:57 | 51.30779 | -0.65425 | 8288 ft | 274 kts | 92° |
| 2026-05-04 14:58 | 51.30740 | -0.62389 | 8107 ft | 272 kts | 92° |
| 2026-05-04 14:58 | 51.30702 | -0.59410 | 7901 ft | 271 kts | 92° |
| 2026-05-04 14:58 | 51.30664 | -0.56400 | 7728 ft | 270 kts | 91° |
| 2026-05-04 14:58 | 51.30625 | -0.53412 | 7544 ft | 269 kts | 91° |
| 2026-05-04 14:59 | 51.30584 | -0.50441 | 7400 ft | 265 kts | 91° |
| 2026-05-04 14:59 | 51.30543 | -0.47507 | 7177 ft | 262 kts | 91° |
| 2026-05-04 14:59 | 51.30842 | -0.41946 | 7027 ft | 244 kts | 74° |
| 2026-05-04 15:00 | 51.31321 | -0.39353 | 7003 ft | 243 kts | 73° |
| 2026-05-04 15:00 | 51.31800 | -0.36742 | 7014 ft | 245 kts | 74° |
| 2026-05-04 15:00 | 51.32256 | -0.34139 | 7012 ft | 247 kts | 75° |
| 2026-05-04 15:01 | 51.33157 | -0.28806 | 7021 ft | 250 kts | 75° |
| 2026-05-04 15:01 | 51.33605 | -0.26126 | 7010 ft | 250 kts | 75° |
| 2026-05-04 15:01 | 51.34062 | -0.23390 | 6681 ft | 257 kts | 76° |
| 2026-05-04 15:01 | 51.34521 | -0.20631 | 6411 ft | 256 kts | 76° |
| 2026-05-04 15:02 | 51.34976 | -0.17888 | 6139 ft | 254 kts | 75° |
| 2026-05-04 15:02 | 51.35429 | -0.15155 | 5821 ft | 253 kts | 76° |
| 2026-05-04 15:02 | 51.35955 | -0.12520 | 5478 ft | 244 kts | 61° |
| 2026-05-04 15:02 | 51.37110 | -0.10658 | 5181 ft | 233 kts | 25° |
| 2026-05-04 15:03 | 51.38639 | -0.09990 | 4934 ft | 229 kts | 4° |
| 2026-05-04 15:03 | 51.40267 | -0.09953 | 4666 ft | 239 kts | 358° |
| 2026-05-04 15:03 | 51.41940 | -0.10056 | 4344 ft | 242 kts | 358° |
| 2026-05-04 15:03 | 51.43616 | -0.10145 | 4039 ft | 239 kts | 357° |
| 2026-05-04 15:04 | 51.45187 | -0.10800 | 3712 ft | 234 kts | 328° |
| 2026-05-04 15:04 | 51.46261 | -0.12661 | 3434 ft | 225 kts | 294° |
| 2026-05-04 15:04 | 51.46544 | -0.15000 | 3168 ft | 212 kts | 272° |
| 2026-05-04 15:04 | 51.46570 | -0.17294 | 3113 ft | 198 kts | 271° |
| 2026-05-04 15:05 | 51.46570 | -0.19454 | 3043 ft | 192 kts | 271° |
| 2026-05-04 15:05 | 51.46561 | -0.21596 | 2812 ft | 190 kts | 271° |
| 2026-05-04 15:05 | 51.46554 | -0.23706 | 2559 ft | 188 kts | 271° |
| 2026-05-04 15:05 | 51.46548 | -0.25739 | 2305 ft | 175 kts | 271° |
| 2026-05-04 15:06 | 51.46542 | -0.27635 | 2063 ft | 167 kts | 271° |
| 2026-05-04 15:06 | 51.46536 | -0.29488 | 1855 ft | 167 kts | 271° |
| 2026-05-04 15:06 | 51.46530 | -0.31332 | 1620 ft | 162 kts | 271° |
| 2026-05-04 15:07 | 51.46520 | -0.34667 | 1236 ft | 146 kts | 272° |
| 2026-05-04 15:07 | 51.46516 | -0.36282 | 1031 ft | 143 kts | 271° |
| 2026-05-04 15:07 | 51.46511 | -0.37883 | 815 ft | 143 kts | 271° |
| 2026-05-04 15:07 | 51.46499 | -0.39481 | 613 ft | 142 kts | 272° |
| 2026-05-04 15:08 | 51.46504 | -0.41031 | 415 ft | 140 kts | 271° |
| 2026-05-04 15:08 | 51.46498 | -0.42600 | 247 ft | 142 kts | 272° |
| 2026-05-04 15:08 | 51.46491 | -0.44180 | 98 ft | 139 kts | 272° |
| 2026-05-04 15:08 | 51.46488 | -0.45536 | 91 ft | 97 kts | 270° |
| 2026-05-04 15:09 | 51.46488 | -0.46303 | 93 ft | 34 kts | 269° |
| 2026-05-04 15:09 | 51.46506 | -0.46643 | 97 ft | 25 kts | 292° |
| 2026-05-04 15:09 | 51.46574 | -0.46831 | 96 ft | 11 kts | 317° |
| 2026-05-04 15:10 | 51.46656 | -0.46949 | 94 ft | 9 kts | 269° |
| 2026-05-04 15:10 | 51.46656 | -0.47039 | 94 ft | 8 kts | 270° |
| 2026-05-04 15:10 | 51.46656 | -0.47150 | 94 ft | 3 kts | 270° |
| 2026-05-04 15:11 | 51.46656 | -0.47152 | 94 ft | 0 kts | 270° |
| 2026-05-04 15:11 | 51.46656 | -0.47155 | 94 ft | 0 kts | 270° |
| 2026-05-04 15:12 | 51.46656 | -0.47161 | 91 ft | 1 kts | 270° |
| 2026-05-04 15:12 | 51.46656 | -0.47188 | 95 ft | 3 kts | 270° |
| 2026-05-04 15:13 | 51.46656 | -0.47238 | 94 ft | 5 kts | 270° |
| 2026-05-04 15:13 | 51.46657 | -0.47309 | 94 ft | 7 kts | 283° |
| 2026-05-04 15:13 | 51.46699 | -0.47348 | 95 ft | 8 kts | 351° |
| 2026-05-04 15:13 | 51.46758 | -0.47349 | 91 ft | 9 kts | 360° |
| 2026-05-04 15:14 | 51.46826 | -0.47349 | 91 ft | 10 kts | 0° |
| 2026-05-04 15:14 | 51.46878 | -0.47349 | 92 ft | 5 kts | 0° |
| 2026-05-04 15:14 | 51.46904 | -0.47374 | 96 ft | 4 kts | 307° |
| 2026-05-04 15:14 | 51.46912 | -0.47417 | 95 ft | 5 kts | 279° |
| 2026-05-04 15:15 | 51.46914 | -0.47461 | 92 ft | 4 kts | 272° |
| 2026-05-04 15:15 | 51.46915 | -0.47484 | 92 ft | 1 kts | 271° |
| 2026-05-04 15:15 | 51.46915 | -0.47493 | 92 ft | 0 kts | 271° |